Terminal Aerodrome Forecast
Issued by NWS

Home | Current Version | Previous Version | Text Only | Print | Product List | Glossary On
Versions: 1 2 3 4 5 6 7 8 9 10 11 12 13 14 15 16 17 18 19 20 21
473
FTUS41 KBGM 311133
TAFELM
TAF
KELM 311133Z 3112/0112 VRB04KT P6SM FEW070
     FM311500 32010KT P6SM FEW080
     FM312300 36006KT P6SM FEW250
     FM010700 VRB02KT 4SM BR FEW250
     FM010900 00000KT 1SM BR FEW002=

USA.gov is the U.S. government's official web portal to all federal, state and local government web resources and services.